Aeroporto :
LOGIN :

Iscrizione | Disclaimer

   EN    FR    IT 

 










Sommario :    VFR   VFR Marginale   IFR   IFR Intensivo   IFR Molto Intensivo
Visibilità : 
Base nubi : 
>= 8 km
>= 3000ft
5 / 8 km
1000 / 3000 ft
1500m / 5 km
500 / 1000 ft
800 / 1500m
200 / 500 ft
< 800m
< 200 ft
Simboli :   Temporali  Nebbia  Neve Forte  Precipitazioni Forti  Vento > 20 kt
SIGMETs :   Varie  Temporali  Ghiacco  Turbolenza  Onda orograficha  Ceneri Vulcaniche






- Altitudine del aeroporto : 1276 ft
- Codice IATA : STR


EDDS - Stuttgart

ULTIMO METAR :
  • 200650Z 36004KT 310V030 4000 -RA BR BKN002 BKN026 01/00 Q1016 TEMPO 6000 SCT002

METARs OBSOLETI :
  • 200620Z 36004KT 330V030 6000 -RA SCT002 SCT030 BKN043 01/00 Q1016 TEMPO 4000 BR BKN002
  • 200550Z 01003KT 340V050 5000 BR FEW001 BKN002 BKN043 01/00 Q1016 NOSIG
  • 200520Z 01003KT 330V060 3800 BCFG BR FEW001 BKN002 BKN043 01/01 Q1016 TEMPO 2000 BKN001
  • 200450Z 36003KT 330V040 2400 BCFG BR SCT001 BKN002 01/01 Q1017
  • 200420Z 34004KT 2900 BCFG BR SCT001 SCT003 BKN045 01/01 Q1017

TAF AMD TAF EDDS
Valido dal 20 a 06 ore il 21 a 06 ore UTC


200649Z 2006/2106 03004KT 8000 BKN015
PROB30
TEMPO 2006/2010 1200 BCFG BKN002
TEMPO 2022/2106 3000 BCFG



MetMap, La meteo Aeronautica in un colpo d'occhio ! - Copyright ORBIFLY Dicembre 2007 - Disclaimer

ORBIFLY MET'MAP TEAM :

Programmazione e sviluppo : Alexandra Zaïnal
Concezione e sviluppo : Baudouin d'Aumeries
Co-Programmazione e sviluppo : Marc-Olivier Méhu
Supporto tecnico e logistico : Manuel Goepfert
Aiuto per la traduzione : Arnaldo La Scala

Contatto : metmap@orbifly.com




FONTI E CREDITI :

   NOAA